Time;durP1;ratioP1;P1;durP2;ratioP2;P2;SDS_P1;SDS_P2;PMS_P1;PMS_P2;Temp;Humidity;BMP_temperature;BMP_pressure;BME280_temperature;BME280_humidity;BME280_pressure;Samples;Min_cycle;Max_cycle;Signal;HPM_P1;HPM_P2
2022/07/16 00:01:57;;;;;;;4.63;4.23;;;18.50;92.40;;;;;;5054407;28;20154;-81
2022/07/16 00:04:23;;;;;;;4.73;4.30;;;18.50;92.60;;;;;;5055213;28;20915;-82
2022/07/16 00:06:49;;;;;;;4.97;4.67;;;18.50;92.80;;;;;;5054766;28;20252;-82
2022/07/16 00:09:15;;;;;;;4.60;4.20;;;18.40;93.00;;;;;;5054242;28;20585;-83
2022/07/16 00:11:40;;;;;;;4.03;3.83;;;18.40;92.90;;;;;;5037592;28;20216;-83
2022/07/16 00:14:06;;;;;;;5.13;4.83;;;18.40;93.00;;;;;;5054183;28;20174;-82
2022/07/16 00:16:32;;;;;;;3.93;3.63;;;18.40;93.00;;;;;;5054529;28;20178;-82
2022/07/16 00:19:18;;;;;;;5.50;5.00;;;18.30;93.00;;;;;;5054171;28;20202;-82
2022/07/16 00:21:50;;;;;;;4.73;4.20;;;18.30;93.30;;;;;;5054600;28;20474;-83
2022/07/16 00:24:16;;;;;;;4.23;3.93;;;18.20;93.50;;;;;;5054361;28;20400;-83
2022/07/16 00:26:43;;;;;;;4.13;3.77;;;18.20;93.40;;;;;;5054677;28;20409;-83
2022/07/16 00:29:09;;;;;;;4.20;4.00;;;18.20;93.10;;;;;;5053924;28;20900;-82
2022/07/16 00:31:37;;;;;;;4.70;4.40;;;18.20;93.00;;;;;;5054168;28;20473;-82
2022/07/16 00:34:07;;;;;;;4.17;3.90;;;18.10;93.10;;;;;;5053618;28;20420;-82
2022/07/16 00:36:34;;;;;;;4.77;3.70;;;18.10;93.40;;;;;;5054023;28;20420;-82
2022/07/16 00:39:00;;;;;;;4.37;4.07;;;18.10;93.30;;;;;;5035995;28;20424;-81
2022/07/16 00:41:26;;;;;;;5.40;4.97;;;18.10;93.30;;;;;;5036498;28;20420;-82
2022/07/16 00:43:58;;;;;;;4.07;3.77;;;18.10;93.20;;;;;;5054154;28;20227;-82
2022/07/16 00:46:24;;;;;;;4.87;4.47;;;18.20;93.30;;;;;;5054360;28;20162;-82
2022/07/16 00:48:50;;;;;;;4.43;4.13;;;18.20;93.20;;;;;;5054261;28;20734;-82
2022/07/16 00:51:15;;;;;;;5.60;4.37;;;18.30;93.30;;;;;;5053485;28;20214;-81
2022/07/16 00:53:43;;;;;;;4.40;4.00;;;18.30;93.20;;;;;;5054301;28;20181;-82
2022/07/16 00:56:11;;;;;;;4.90;4.60;;;18.30;93.70;;;;;;5053119;28;20188;-81
2022/07/16 00:58:38;;;;;;;5.90;4.00;;;18.40;93.60;;;;;;5036204;28;20404;-82
2022/07/16 01:01:04;;;;;;;4.77;4.47;;;18.40;93.40;;;;;;5053612;28;20754;-81
2022/07/16 01:03:30;;;;;;;4.77;4.50;;;18.40;93.50;;;;;;5053828;28;20494;-82
2022/07/16 01:05:57;;;;;;;4.73;4.33;;;18.40;93.30;;;;;;5053503;28;20951;-82
2022/07/16 01:08:23;;;;;;;5.00;4.50;;;18.40;93.40;;;;;;5053473;28;20456;-82
2022/07/16 01:10:49;;;;;;;4.70;4.30;;;18.40;93.20;;;;;;5053445;28;20513;-82
2022/07/16 01:13:17;;;;;;;4.90;4.60;;;18.50;93.30;;;;;;5052711;28;20417;-82
2022/07/16 01:15:43;;;;;;;4.97;4.57;;;18.40;93.10;;;;;;5053516;28;20440;-82
2022/07/16 01:18:08;;;;;;;4.70;4.40;;;18.40;93.00;;;;;;5052842;28;20455;-83
2022/07/16 01:20:34;;;;;;;4.90;4.60;;;18.40;93.00;;;;;;5040354;28;20459;-82
2022/07/16 01:23:01;;;;;;;5.47;4.97;;;18.50;93.60;;;;;;5072048;28;20200;-80
2022/07/16 01:25:28;;;;;;;4.83;4.43;;;18.40;93.40;;;;;;5073465;28;20213;-82
2022/07/16 01:27:53;;;;;;;4.63;4.33;;;18.50;93.60;;;;;;5073694;28;20419;-83
2022/07/16 01:30:19;;;;;;;5.13;4.73;;;18.40;93.50;;;;;;5072788;28;20837;-82
2022/07/16 01:32:45;;;;;;;4.80;4.50;;;18.40;93.80;;;;;;5054830;28;20200;-82
2022/07/16 01:35:10;;;;;;;5.10;4.70;;;18.40;93.80;;;;;;5073497;28;20181;-82
2022/07/16 01:37:36;;;;;;;6.00;5.20;;;18.40;94.00;;;;;;5074348;28;20173;-82
2022/07/16 01:40:03;;;;;;;5.90;5.40;;;18.40;94.10;;;;;;5084517;28;20181;-80
2022/07/16 01:42:29;;;;;;;5.27;4.87;;;18.40;94.00;;;;;;5080727;28;20465;-82
2022/07/16 01:44:55;;;;;;;5.77;5.17;;;18.40;93.80;;;;;;5073254;28;20419;-82
2022/07/16 01:47:20;;;;;;;4.93;4.63;;;18.40;93.90;;;;;;5071381;28;20181;-81
2022/07/16 01:49:46;;;;;;;4.40;4.20;;;18.30;94.00;;;;;;5072745;28;20565;-81
2022/07/16 01:52:21;;;;;;;4.70;4.40;;;18.30;93.80;;;;;;5072526;28;20185;-81
2022/07/16 01:54:53;;;;;;;5.40;4.93;;;18.20;93.70;;;;;;5073259;28;20403;-81
2022/07/16 01:57:20;;;;;;;4.40;4.10;;;18.20;93.80;;;;;;5070888;28;20404;-82
2022/07/16 01:59:47;;;;;;;5.33;4.80;;;18.20;94.00;;;;;;5071598;28;20819;-82
2022/07/16 02:02:13;;;;;;;4.87;4.47;;;18.20;94.00;;;;;;5072553;28;20770;-82
2022/07/16 02:04:40;;;;;;;4.40;4.00;;;18.20;93.90;;;;;;5073113;28;20419;-82
2022/07/16 02:07:09;;;;;;;4.70;4.30;;;18.10;94.10;;;;;;5072165;28;20411;-83
2022/07/16 02:09:35;;;;;;;5.50;5.10;;;18.10;94.10;;;;;;5072356;28;20489;-83
2022/07/16 02:12:01;;;;;;;4.83;4.43;;;18.00;94.10;;;;;;5072853;28;20411;-83
2022/07/16 02:14:27;;;;;;;4.60;4.30;;;18.00;94.40;;;;;;5070970;28;20617;-82
2022/07/16 02:16:53;;;;;;;5.50;5.10;;;18.00;94.70;;;;;;5072849;28;20812;-83
2022/07/16 02:19:19;;;;;;;4.80;4.43;;;17.90;94.70;;;;;;5070854;28;20696;-83
2022/07/16 02:21:44;;;;;;;4.60;4.30;;;17.90;94.80;;;;;;5071398;28;20558;-83
2022/07/16 02:24:10;;;;;;;5.30;4.27;;;17.80;94.90;;;;;;5070809;28;20177;-83
2022/07/16 02:26:36;;;;;;;6.53;5.50;;;17.70;95.10;;;;;;5072571;28;20632;-83
2022/07/16 02:29:02;;;;;;;5.93;5.43;;;17.60;95.20;;;;;;5072291;28;20649;-83
2022/07/16 02:31:28;;;;;;;6.23;5.73;;;17.60;95.30;;;;;;5071869;28;20262;-83
2022/07/16 02:33:54;;;;;;;18.13;7.33;;;17.70;95.50;;;;;;5071133;28;20460;-83
2022/07/16 02:36:19;;;;;;;6.70;5.37;;;17.80;98.20;;;;;;5072173;28;20185;-83
2022/07/16 02:38:45;;;;;;;5.07;4.67;;;17.80;98.00;;;;;;5071128;28;20202;-83
2022/07/16 02:41:11;;;;;;;4.40;4.10;;;17.90;96.70;;;;;;5070706;28;20632;-83
2022/07/16 02:43:36;;;;;;;4.70;4.37;;;17.90;96.60;;;;;;5071525;28;20181;-83
2022/07/16 02:46:02;;;;;;;4.80;4.50;;;17.90;96.40;;;;;;5076040;28;20180;-83
2022/07/16 02:48:30;;;;;;;4.77;4.30;;;17.90;96.70;;;;;;5076472;28;20515;-82
2022/07/16 02:50:56;;;;;;;4.80;4.40;;;18.00;96.40;;;;;;5075248;28;20469;-82
2022/07/16 02:53:22;;;;;;;4.70;4.40;;;18.00;96.20;;;;;;5075729;28;20181;-82
2022/07/16 02:55:48;;;;;;;4.97;4.33;;;18.00;96.40;;;;;;5076288;28;20173;-82
2022/07/16 02:58:13;;;;;;;4.67;4.37;;;18.00;96.50;;;;;;5076353;28;20226;-81
2022/07/16 03:00:39;;;;;;;6.00;4.30;;;18.00;96.10;;;;;;5075023;28;20204;-82
2022/07/16 03:03:04;;;;;;;5.30;4.53;;;18.10;96.20;;;;;;5074833;28;20169;-82
2022/07/16 03:05:30;;;;;;;5.10;4.70;;;18.10;96.60;;;;;;5075174;28;20208;-82
2022/07/16 03:07:56;;;;;;;4.77;4.23;;;18.10;96.30;;;;;;5075962;28;20169;-82
2022/07/16 03:10:22;;;;;;;4.87;4.37;;;18.20;95.60;;;;;;5074433;28;20200;-81
2022/07/16 03:12:47;;;;;;;4.57;4.17;;;18.20;95.70;;;;;;5076027;28;20169;-83
2022/07/16 03:15:13;;;;;;;4.70;4.23;;;18.20;95.90;;;;;;5075512;28;20260;-83
2022/07/16 03:17:40;;;;;;;4.80;4.50;;;18.30;95.80;;;;;;5076254;28;20181;-83
2022/07/16 03:20:07;;;;;;;5.90;5.50;;;18.30;95.70;;;;;;5074330;28;20430;-82
2022/07/16 03:22:33;;;;;;;4.33;4.03;;;18.30;96.60;;;;;;5038310;28;20832;-83
2022/07/16 03:24:58;;;;;;;4.50;4.10;;;18.40;96.30;;;;;;5055852;28;20442;-83
2022/07/16 03:27:24;;;;;;;4.83;4.40;;;18.40;96.10;;;;;;5055509;28;20639;-82
2022/07/16 03:29:50;;;;;;;5.17;4.77;;;18.40;96.10;;;;;;5055765;28;20688;-82
2022/07/16 03:32:16;;;;;;;8.50;4.73;;;18.50;96.20;;;;;;5054917;28;20180;-82
2022/07/16 03:34:42;;;;;;;5.97;5.37;;;18.50;96.60;;;;;;5055587;28;20536;-81
2022/07/16 03:37:10;;;;;;;5.60;5.10;;;18.50;96.20;;;;;;5037665;28;20527;-82
2022/07/16 03:39:36;;;;;;;5.30;4.90;;;18.50;96.30;;;;;;5055573;28;20170;-81
2022/07/16 03:42:02;;;;;;;5.47;5.07;;;18.50;96.00;;;;;;5055649;28;20405;-82
2022/07/16 03:44:31;;;;;;;6.40;5.70;;;18.50;95.70;;;;;;5054846;28;20248;-81
2022/07/16 03:46:57;;;;;;;6.40;5.80;;;18.50;95.30;;;;;;5020841;28;20441;-81
2022/07/16 03:49:22;;;;;;;6.20;4.90;;;18.60;95.50;;;;;;5054908;28;20451;-81
2022/07/16 03:51:48;;;;;;;4.83;4.50;;;18.60;95.50;;;;;;5055158;28;20182;-82
2022/07/16 03:54:14;;;;;;;5.97;5.07;;;18.60;95.30;;;;;;5054318;28;20178;-81
2022/07/16 03:56:39;;;;;;;5.60;5.30;;;18.60;95.20;;;;;;5055073;28;20235;-81
2022/07/16 03:59:05;;;;;;;5.67;5.27;;;18.60;95.70;;;;;;5055345;28;20218;-83
2022/07/16 04:01:31;;;;;;;5.73;5.30;;;18.70;95.30;;;;;;5020227;28;20205;-82
2022/07/16 04:03:57;;;;;;;5.77;5.37;;;18.70;95.70;;;;;;5054693;28;20170;-82
2022/07/16 04:06:22;;;;;;;7.53;5.77;;;18.70;94.90;;;;;;5036570;28;20554;-81
2022/07/16 04:08:48;;;;;;;6.83;6.00;;;18.70;94.80;;;;;;5054961;28;20649;-82
2022/07/16 04:11:14;;;;;;;6.33;5.47;;;18.70;94.60;;;;;;5054465;28;20210;-81
2022/07/16 04:13:40;;;;;;;6.60;6.17;;;18.70;94.40;;;;;;5037095;28;20240;-82
2022/07/16 04:16:07;;;;;;;7.90;7.33;;;18.80;94.40;;;;;;5054749;28;20889;-82
2022/07/16 04:18:34;;;;;;;5.70;5.30;;;18.80;94.90;;;;;;5054138;28;20174;-81
2022/07/16 04:20:59;;;;;;;6.83;6.33;;;18.90;95.10;;;;;;5054921;28;20473;-82
2022/07/16 04:23:25;;;;;;;6.80;6.30;;;18.90;93.90;;;;;;5054066;28;20420;-82
2022/07/16 04:25:51;;;;;;;5.63;5.13;;;19.00;95.10;;;;;;5054632;28;20244;-81
2022/07/16 04:28:18;;;;;;;6.37;5.77;;;19.00;94.20;;;;;;5054249;28;20216;-81
2022/07/16 04:30:44;;;;;;;7.43;6.80;;;19.10;93.90;;;;;;5036524;28;20245;-81
2022/07/16 04:33:10;;;;;;;7.40;6.80;;;19.10;93.50;;;;;;5054436;28;20408;-81
2022/07/16 04:35:36;;;;;;;7.53;6.93;;;19.10;93.60;;;;;;5054053;28;20405;-81
2022/07/16 04:38:02;;;;;;;6.57;5.97;;;19.10;94.20;;;;;;5054462;28;20404;-81
2022/07/16 04:40:27;;;;;;;6.87;5.87;;;19.10;93.70;;;;;;5036007;28;20178;-82
2022/07/16 04:42:53;;;;;;;5.73;5.23;;;19.20;94.10;;;;;;5054188;28;20593;-81
2022/07/16 04:45:19;;;;;;;6.77;6.10;;;19.20;93.60;;;;;;5053363;28;20177;-81
2022/07/16 04:47:45;;;;;;;6.20;5.60;;;19.20;93.20;;;;;;5054238;28;20178;-82
2022/07/16 04:50:11;;;;;;;6.30;5.73;;;19.20;93.50;;;;;;5054772;28;20208;-81
2022/07/16 04:52:36;;;;;;;7.57;6.77;;;19.20;93.50;;;;;;5053910;28;20237;-82
2022/07/16 04:55:03;;;;;;;6.77;5.80;;;19.20;93.60;;;;;;5053995;28;20433;-83
2022/07/16 04:57:28;;;;;;;7.40;6.50;;;19.30;94.10;;;;;;5053708;28;20232;-83
2022/07/16 04:59:54;;;;;;;7.60;5.97;;;19.30;94.30;;;;;;5036140;28;20444;-83
2022/07/16 05:05:20;;;;;;;6.00;5.60;;;19.40;93.10;;;;;;5019410;28;20223;-81
2022/07/16 05:07:49;;;;;;;7.00;6.50;;;19.40;92.80;;;;;;5052966;28;20419;-83
2022/07/16 05:10:15;;;;;;;6.23;5.70;;;19.40;93.10;;;;;;5053050;28;20460;-82
2022/07/16 05:12:42;;;;;;;5.83;5.30;;;19.50;93.10;;;;;;5053659;28;20408;-83
2022/07/16 05:15:08;;;;;;;7.00;6.50;;;19.50;92.10;;;;;;5053324;28;20412;-83
2022/07/16 05:17:34;;;;;;;5.73;5.33;;;19.50;94.10;;;;;;5052615;28;20412;-83
2022/07/16 05:20:00;;;;;;;5.40;4.93;;;19.60;93.50;;;;;;5053139;28;20435;-83
2022/07/16 05:22:25;;;;;;;7.03;6.53;;;19.60;92.80;;;;;;5052274;28;20267;-82
2022/07/16 05:24:51;;;;;;;5.50;5.10;;;19.60;94.10;;;;;;5053375;28;20693;-82
2022/07/16 05:27:17;;;;;;;6.20;5.80;;;19.60;92.80;;;;;;5034860;28;20276;-81
2022/07/16 05:29:42;;;;;;;5.73;5.43;;;19.70;93.10;;;;;;5053224;28;20165;-82
2022/07/16 05:32:08;;;;;;;5.60;5.10;;;19.60;93.20;;;;;;5053135;28;20174;-82
2022/07/16 05:34:34;;;;;;;5.27;4.77;;;19.70;92.60;;;;;;5034879;28;20586;-81
2022/07/16 05:36:59;;;;;;;6.30;5.80;;;19.60;92.30;;;;;;5053186;28;20173;-81
2022/07/16 05:39:25;;;;;;;5.87;5.37;;;19.70;93.00;;;;;;5052522;28;20231;-81
2022/07/16 05:41:51;;;;;;;5.67;5.17;;;19.70;92.60;;;;;;5053233;28;20701;-81
2022/07/16 05:44:16;;;;;;;6.60;6.00;;;19.70;92.90;;;;;;5052122;28;20223;-81
2022/07/16 05:46:42;;;;;;;4.90;4.60;;;19.80;93.60;;;;;;5053030;28;20177;-82
2022/07/16 05:49:09;;;;;;;5.87;5.47;;;19.90;92.80;;;;;;5053038;28;20169;-83
2022/07/16 05:51:35;;;;;;;6.00;4.73;;;19.90;93.00;;;;;;5052224;28;20241;-82
2022/07/16 05:54:01;;;;;;;6.57;5.97;;;20.00;93.10;;;;;;5052889;28;20439;-83
2022/07/16 05:56:26;;;;;;;5.20;4.80;;;20.00;92.70;;;;;;5052246;28;20260;-81
2022/07/16 05:58:52;;;;;;;6.27;5.60;;;20.00;92.60;;;;;;5052953;28;20197;-82
2022/07/16 06:01:18;;;;;;;6.43;5.87;;;20.10;92.70;;;;;;5034362;28;20318;-80
2022/07/16 06:03:43;;;;;;;5.40;5.00;;;20.10;92.40;;;;;;5052867;28;20197;-81
2022/07/16 06:06:09;;;;;;;6.37;5.73;;;20.10;93.20;;;;;;5052657;28;20174;-81
2022/07/16 06:08:35;;;;;;;6.13;5.40;;;20.10;92.80;;;;;;5051703;28;20185;-82
2022/07/16 06:11:00;;;;;;;6.70;6.20;;;20.20;93.30;;;;;;5052740;28;20213;-83
2022/07/16 06:13:26;;;;;;;6.13;5.63;;;20.20;94.20;;;;;;5051983;28;20622;-81
2022/07/16 06:15:52;;;;;;;6.47;5.97;;;20.20;93.60;;;;;;5052757;28;20170;-81
2022/07/16 06:18:18;;;;;;;5.97;5.40;;;20.30;93.60;;;;;;5051890;28;20208;-79
2022/07/16 06:20:43;;;;;;;6.17;5.40;;;20.30;94.00;;;;;;5025259;28;20229;-82
2022/07/16 06:23:09;;;;;;;6.67;5.97;;;20.40;94.30;;;;;;5071233;28;20195;-86
2022/07/16 06:25:35;;;;;;;6.23;5.73;;;20.50;94.90;;;;;;5071873;28;20181;-77
2022/07/16 06:28:00;;;;;;;7.40;6.90;;;20.60;94.70;;;;;;5071235;28;20188;-78
2022/07/16 06:30:26;;;;;;;6.70;6.00;;;20.90;94.30;;;;;;5071769;28;20207;-78
2022/07/16 06:32:52;;;;;;;6.00;5.60;;;21.10;93.50;;;;;;5072588;28;20177;-78
2022/07/16 06:35:18;;;;;;;10.33;9.23;;;21.30;93.20;;;;;;5070948;28;20168;-78
2022/07/16 06:37:44;;;;;;;10.43;9.57;;;21.50;92.60;;;;;;5072716;28;20526;-78
2022/07/16 06:40:10;;;;;;;8.73;7.83;;;21.60;92.20;;;;;;5071243;28;20399;-78
2022/07/16 06:42:37;;;;;;;9.17;8.37;;;21.70;92.00;;;;;;5071447;28;20181;-78
2022/07/16 06:45:03;;;;;;;8.43;7.63;;;21.70;91.70;;;;;;5072636;28;20770;-78
2022/07/16 06:47:29;;;;;;;10.63;9.60;;;21.80;91.80;;;;;;5071745;28;20512;-77
2022/07/16 06:49:54;;;;;;;13.30;12.00;;;21.80;91.70;;;;;;5071686;28;20495;-78
2022/07/16 06:52:20;;;;;;;8.83;7.97;;;21.90;91.50;;;;;;5069964;28;20185;-78
2022/07/16 06:54:46;;;;;;;8.87;7.93;;;22.00;91.40;;;;;;5071922;28;20180;-78
2022/07/16 06:57:11;;;;;;;10.40;9.40;;;22.00;91.40;;;;;;5071433;28;20182;-78
2022/07/16 06:59:37;;;;;;;20.63;17.27;;;22.00;91.30;;;;;;5071310;28;20169;-78
2022/07/16 07:02:03;;;;;;;11.70;10.50;;;22.00;91.20;;;;;;5071836;28;20268;-78
2022/07/16 07:04:29;;;;;;;10.67;8.60;;;22.10;91.00;;;;;;5071459;28;20251;-78
2022/07/16 07:06:54;;;;;;;78.73;41.50;;;22.10;90.90;;;;;;5071731;28;20181;-80
2022/07/16 07:09:20;;;;;;;41.83;26.30;;;22.20;91.40;;;;;;5071401;28;20177;-79
2022/07/16 07:11:46;;;;;;;32.53;20.70;;;22.30;91.40;;;;;;5071370;28;20615;-80
2022/07/16 07:14:12;;;;;;;25.83;16.40;;;22.30;91.20;;;;;;5070308;28;20841;-79
2022/07/16 07:16:37;;;;;;;17.03;14.50;;;22.40;91.20;;;;;;5069707;28;20184;-79
2022/07/16 07:19:04;;;;;;;13.73;12.33;;;22.40;90.80;;;;;;5071864;28;20181;-79
2022/07/16 07:21:29;;;;;;;14.00;11.57;;;22.50;90.70;;;;;;5059090;28;20228;-77
2022/07/16 07:23:57;;;;;;;10.63;9.70;;;22.60;90.40;;;;;;5051076;28;20408;-77
2022/07/16 07:26:22;;;;;;;11.70;10.47;;;22.50;90.50;;;;;;5050606;28;20316;-78
2022/07/16 07:28:48;;;;;;;8.60;7.90;;;22.60;90.20;;;;;;5051315;28;20916;-77
2022/07/16 07:31:14;;;;;;;7.90;7.30;;;22.60;90.00;;;;;;5054297;28;20201;-71
2022/07/16 07:33:40;;;;;;;10.10;9.20;;;22.50;89.90;;;;;;5054533;28;20673;-71
2022/07/16 07:36:06;;;;;;;12.90;11.70;;;22.50;90.00;;;;;;5055051;28;20656;-71
2022/07/16 07:38:31;;;;;;;14.03;12.67;;;22.40;89.90;;;;;;5054653;28;20180;-71
2022/07/16 07:40:58;;;;;;;12.50;11.40;;;22.40;89.90;;;;;;5037033;28;20190;-71
2022/07/16 07:43:24;;;;;;;12.97;11.70;;;22.40;89.70;;;;;;5054326;28;20170;-72
2022/07/16 07:45:50;;;;;;;11.73;10.70;;;22.40;89.50;;;;;;5020459;28;20420;-71
2022/07/16 07:48:16;;;;;;;9.73;8.93;;;22.40;89.20;;;;;;5054621;28;20900;-71
2022/07/16 07:50:41;;;;;;;8.87;8.27;;;22.40;88.90;;;;;;5054076;28;20263;-71
2022/07/16 07:53:07;;;;;;;7.53;7.00;;;22.40;88.70;;;;;;5054919;28;20576;-71
2022/07/16 07:55:33;;;;;;;6.73;5.60;;;22.40;88.40;;;;;;5053971;28;20182;-71
2022/07/16 07:57:59;;;;;;;7.20;6.60;;;22.40;88.30;;;;;;5054285;28;20719;-71
2022/07/16 08:00:25;;;;;;;8.83;8.03;;;22.40;87.70;;;;;;5036157;28;20408;-72
2022/07/16 08:02:51;;;;;;;8.50;7.70;;;22.50;87.20;;;;;;5054275;28;20224;-71
2022/07/16 08:05:17;;;;;;;7.00;6.47;;;22.60;86.70;;;;;;5051663;28;20771;-71
2022/07/16 08:07:43;;;;;;;6.67;6.07;;;22.70;85.60;;;;;;5053450;28;20516;-72
2022/07/16 08:10:10;;;;;;;6.27;5.77;;;22.70;85.00;;;;;;5028433;28;20492;-71
2022/07/16 08:12:37;;;;;;;7.23;6.73;;;22.80;84.20;;;;;;5011696;28;20453;-71
2022/07/16 08:15:03;;;;;;;6.60;6.10;;;22.80;83.20;;;;;;5012180;28;20429;-71
2022/07/16 08:17:29;;;;;;;6.90;6.30;;;22.80;83.10;;;;;;5011644;28;20430;-71
2022/07/16 08:19:57;;;;;;;8.10;7.30;;;22.80;82.60;;;;;;5011949;28;20414;-71
2022/07/16 08:22:23;;;;;;;6.57;6.07;;;22.90;82.20;;;;;;5050441;28;20225;-71
2022/07/16 08:27:35;;;;;;;6.73;6.13;;;23.00;81.60;;;;;;5046185;28;20773;-71
2022/07/16 08:30:01;;;;;;;6.90;6.20;;;22.90;80.60;;;;;;5051564;28;20460;-71
2022/07/16 08:32:27;;;;;;;4.55;4.25;;;22.80;80.40;;;;;;5050442;28;20906;-73
2022/07/16 08:34:53;;;;;;;3.43;3.23;;;22.80;80.70;;;;;;5034784;28;20181;-73
2022/07/16 08:37:37;;;;;;;3.50;3.30;;;22.90;79.60;;;;;;5051596;28;20170;-74
2022/07/16 08:40:06;;;;;;;4.30;4.00;;;22.80;78.30;;;;;;5052826;28;20423;-73
2022/07/16 08:42:35;;;;;;;5.80;5.40;;;22.90;77.60;;;;;;5073139;28;20403;-74
2022/07/16 08:45:05;;;;;;;6.37;5.70;;;22.80;77.20;;;;;;5072587;28;20426;-73
2022/07/16 08:47:32;;;;;;;7.30;5.90;;;22.80;77.10;;;;;;5073111;28;20432;-74
2022/07/16 08:50:04;;;;;;;5.40;5.10;;;22.70;77.30;;;;;;5073196;28;20509;-73
2022/07/16 08:52:30;;;;;;;5.83;5.33;;;22.60;78.10;;;;;;5071806;28;20481;-73
2022/07/16 08:54:56;;;;;;;5.93;5.13;;;22.70;77.40;;;;;;5073299;28;20419;-73
2022/07/16 08:57:23;;;;;;;6.67;4.83;;;22.80;77.60;;;;;;5073451;28;20399;-73
2022/07/16 08:59:51;;;;;;;4.47;4.07;;;22.90;77.10;;;;;;5072878;28;20458;-73
2022/07/16 09:02:17;;;;;;;4.03;3.67;;;22.90;77.10;;;;;;5053133;28;20443;-73
2022/07/16 09:04:43;;;;;;;3.47;3.27;;;22.80;77.10;;;;;;5072709;28;20424;-73
2022/07/16 09:07:13;;;;;;;3.80;3.60;;;22.80;76.90;;;;;;5073041;28;20450;-73
2022/07/16 09:09:42;;;;;;;3.60;3.30;;;22.80;76.80;;;;;;5067443;28;20439;-73
2022/07/16 09:12:07;;;;;;;4.13;3.87;;;22.90;76.80;;;;;;5073226;28;20426;-73
2022/07/16 09:14:33;;;;;;;6.80;4.70;;;23.00;76.40;;;;;;5071268;28;20411;-73
2022/07/16 09:17:01;;;;;;;6.13;5.57;;;23.00;76.20;;;;;;5073196;28;20181;-73
2022/07/16 09:19:29;;;;;;;5.10;4.73;;;22.90;76.30;;;;;;5071591;28;20422;-74
2022/07/16 09:22:09;;;;;;;4.97;4.57;;;22.80;76.20;;;;;;5071554;28;20311;-73
2022/07/16 09:24:45;;;;;;;5.13;4.73;;;22.80;75.70;;;;;;5070692;28;20411;-74
2022/07/16 09:27:20;;;;;;;4.30;4.00;;;22.80;75.80;;;;;;5072952;28;20443;-73
2022/07/16 09:29:51;;;;;;;6.00;5.47;;;23.00;75.50;;;;;;5072074;28;20461;-74
2022/07/16 09:32:39;;;;;;;4.97;4.60;;;23.10;74.70;;;;;;5072627;28;20408;-73
2022/07/16 09:35:05;;;;;;;4.07;3.87;;;23.10;73.90;;;;;;5069407;28;20422;-73
2022/07/16 09:37:47;;;;;;;4.33;4.03;;;22.90;74.60;;;;;;5069313;28;20833;-74
2022/07/16 09:40:13;;;;;;;4.13;3.73;;;22.70;74.80;;;;;;5072672;28;20422;-73
2022/07/16 09:42:40;;;;;;;3.67;3.57;;;22.60;75.20;;;;;;5072113;28;20433;-73
2022/07/16 09:45:07;;;;;;;3.20;3.00;;;22.60;75.20;;;;;;5072983;28;20832;-67
2022/07/16 09:47:33;;;;;;;3.87;3.50;;;22.60;75.70;;;;;;5072623;28;20407;-69
2022/07/16 09:50:00;;;;;;;3.60;3.40;;;22.70;76.70;;;;;;5071359;28;20469;-69
2022/07/16 09:52:31;;;;;;;3.40;3.30;;;22.70;77.00;;;;;;5072429;28;20423;-69
2022/07/16 09:54:58;;;;;;;2.80;2.70;;;22.70;76.30;;;;;;5072360;28;20447;-70
2022/07/16 09:57:27;;;;;;;3.30;3.10;;;22.70;76.50;;;;;;5072753;28;20774;-69
2022/07/16 09:59:53;;;;;;;3.53;3.33;;;22.80;76.40;;;;;;5072287;28;20451;-69
2022/07/16 10:02:20;;;;;;;3.27;2.97;;;22.80;74.70;;;;;;5072761;28;20411;-69
2022/07/16 10:04:46;;;;;;;3.50;3.10;;;22.70;74.20;;;;;;5071882;28;20411;-69
2022/07/16 10:07:12;;;;;;;3.40;3.30;;;22.70;75.00;;;;;;5071610;28;20906;-69
2022/07/16 10:09:38;;;;;;;3.33;3.13;;;22.70;75.20;;;;;;5071133;28;20412;-69
2022/07/16 10:12:19;;;;;;;3.20;3.00;;;22.70;76.80;;;;;;5072686;28;20185;-69
2022/07/16 10:14:48;;;;;;;3.37;3.10;;;22.90;80.80;;;;;;5072158;28;20413;-69
2022/07/16 10:17:38;;;;;;;3.23;3.00;;;23.20;78.20;;;;;;5072896;28;20521;-69
2022/07/16 10:20:11;;;;;;;3.73;3.40;;;23.60;77.60;;;;;;5072119;28;20426;-69
2022/07/16 10:22:48;;;;;;;3.27;3.07;;;23.80;73.30;;;;;;5052145;28;20412;-69
2022/07/16 10:25:19;;;;;;;3.40;3.10;;;23.90;72.50;;;;;;5034925;28;20415;-69
2022/07/16 10:27:45;;;;;;;3.73;3.20;;;23.90;71.40;;;;;;4990396;28;20909;-69
2022/07/16 10:30:18;;;;;;;3.07;2.97;;;23.80;71.80;;;;;;4990769;28;20459;-69
2022/07/16 10:32:59;;;;;;;3.40;2.77;;;23.70;72.20;;;;;;4990447;28;20438;-69
2022/07/16 10:35:49;;;;;;;2.80;2.70;;;23.80;73.60;;;;;;4991188;28;20427;-69
2022/07/16 10:38:17;;;;;;;3.40;3.20;;;23.90;72.50;;;;;;4990400;28;20437;-69
2022/07/16 10:40:45;;;;;;;3.13;3.03;;;24.00;72.90;;;;;;4973988;28;20439;-69
2022/07/16 10:43:11;;;;;;;4.03;2.80;;;23.90;71.30;;;;;;4990734;28;20578;-69
2022/07/16 10:45:50;;;;;;;4.80;3.30;;;23.90;72.20;;;;;;4990117;28;20515;-69
2022/07/16 10:48:17;;;;;;;2.70;2.60;;;23.80;73.50;;;;;;4990761;28;20426;-69
2022/07/16 10:51:14;;;;;;;3.23;3.03;;;24.00;76.20;;;;;;4989860;28;20569;-69
2022/07/16 10:53:57;;;;;;;4.63;4.33;;;24.20;71.00;;;;;;4990327;28;20528;-69
2022/07/16 10:56:36;;;;;;;3.77;3.57;;;24.30;71.70;;;;;;4974558;28;20426;-69
2022/07/16 10:59:07;;;;;;;3.70;3.40;;;24.40;71.90;;;;;;5028921;28;20899;-70
2022/07/16 11:01:35;;;;;;;3.67;3.47;;;24.50;73.80;;;;;;5052368;28;20752;-69
2022/07/16 11:04:02;;;;;;;3.40;3.10;;;24.60;72.80;;;;;;5034241;28;20454;-70
2022/07/16 11:06:29;;;;;;;3.67;3.40;;;24.60;70.40;;;;;;5055748;28;20412;-70
2022/07/16 11:08:56;;;;;;;3.57;3.27;;;24.70;70.50;;;;;;5055503;28;20767;-69
2022/07/16 11:11:22;;;;;;;7.73;7.10;;;24.80;68.60;;;;;;5056098;28;20460;-69
2022/07/16 11:13:49;;;;;;;3.67;3.47;;;24.90;70.70;;;;;;5037461;28;20404;-69
2022/07/16 11:16:14;;;;;;;3.50;3.20;;;25.10;69.00;;;;;;5056133;28;20423;-69
2022/07/16 11:18:40;;;;;;;3.33;3.03;;;25.20;66.70;;;;;;5020580;28;20416;-70
2022/07/16 11:21:07;;;;;;;3.57;3.27;;;25.30;65.80;;;;;;5055613;28;20334;-69
2022/07/16 11:24:00;;;;;;;3.40;3.20;;;25.30;63.10;;;;;;5055353;28;20420;-69
2022/07/16 11:26:27;;;;;;;3.47;3.27;;;25.30;65.80;;;;;;5055603;28;20450;-69
2022/07/16 11:28:55;;;;;;;11.97;3.53;;;25.20;63.20;;;;;;5012823;28;20458;-70
2022/07/16 11:31:34;;;;;;;4.10;3.70;;;25.20;62.80;;;;;;4996912;28;20538;-69
2022/07/16 11:34:03;;;;;;;3.10;2.90;;;25.30;64.00;;;;;;5013179;28;20488;-69
2022/07/16 11:36:32;;;;;;;3.17;2.70;;;25.40;62.50;;;;;;5013321;28;20886;-69
2022/07/16 11:39:09;;;;;;;3.77;3.47;;;25.40;61.30;;;;;;5012721;28;20414;-69
2022/07/16 11:41:40;;;;;;;3.77;3.57;;;25.50;65.00;;;;;;4997268;28;20468;-69
2022/07/16 11:44:11;;;;;;;3.70;3.40;;;25.60;63.70;;;;;;4996890;28;20518;-69
2022/07/16 11:46:47;;;;;;;3.70;3.40;;;25.80;64.40;;;;;;4996831;28;20399;-73
2022/07/16 11:49:28;;;;;;;3.13;3.03;;;25.90;62.60;;;;;;5013306;28;20429;-70
2022/07/16 11:51:57;;;;;;;3.30;3.10;;;25.90;61.50;;;;;;4996924;28;20814;-69
2022/07/16 11:54:24;;;;;;;3.77;3.57;;;25.90;60.20;;;;;;4996828;28;20465;-69
2022/07/16 11:56:54;;;;;;;3.93;3.40;;;25.70;60.80;;;;;;5012549;28;20441;-69
2022/07/16 11:59:33;;;;;;;3.63;3.43;;;25.70;61.70;;;;;;5022245;28;20420;-69
2022/07/16 12:02:09;;;;;;;3.20;3.03;;;25.90;61.50;;;;;;5054295;28;20408;-69
2022/07/16 12:04:39;;;;;;;3.60;3.40;;;25.80;61.50;;;;;;5055153;28;20408;-69
2022/07/16 12:07:11;;;;;;;3.27;3.07;;;25.90;60.60;;;;;;5055075;28;20471;-70
2022/07/16 12:09:40;;;;;;;3.57;3.37;;;26.00;59.90;;;;;;5055083;28;20416;-69
2022/07/16 12:12:15;;;;;;;3.33;3.13;;;26.10;60.80;;;;;;5037028;28;20490;-69
2022/07/16 12:14:44;;;;;;;3.43;3.13;;;26.10;59.90;;;;;;5054254;28;20435;-70
2022/07/16 12:17:31;;;;;;;3.13;3.03;;;26.00;60.30;;;;;;5054232;28;20416;-69
2022/07/16 12:20:12;;;;;;;3.87;3.57;;;26.00;59.50;;;;;;5054145;28;20427;-69
2022/07/16 12:22:53;;;;;;;3.30;3.10;;;26.00;59.40;;;;;;5054681;28;20420;-69
2022/07/16 12:25:23;;;;;;;3.20;3.00;;;25.80;58.80;;;;;;5054663;28;20416;-69
2022/07/16 12:28:08;;;;;;;4.00;3.00;;;25.70;60.70;;;;;;5053921;28;20516;-69
2022/07/16 12:30:49;;;;;;;2.93;2.70;;;25.70;60.60;;;;;;5054224;28;20539;-69
2022/07/16 12:33:23;;;;;;;3.30;3.20;;;25.90;59.60;;;;;;5054329;28;20416;-69
2022/07/16 12:36:01;;;;;;;3.30;2.87;;;25.90;59.00;;;;;;5053677;28;20413;-69
2022/07/16 12:38:58;;;;;;;4.13;3.40;;;25.90;58.00;;;;;;5054553;28;20418;-69
2022/07/16 12:41:30;;;;;;;2.80;2.70;;;25.80;59.10;;;;;;5036455;28;20412;-69
2022/07/16 12:44:16;;;;;;;3.70;3.50;;;25.80;58.40;;;;;;5053569;28;20447;-69
2022/07/16 12:46:51;;;;;;;3.80;3.60;;;25.80;56.90;;;;;;5014740;28;20515;-70
2022/07/16 12:49:22;;;;;;;3.90;3.70;;;26.00;59.90;;;;;;5031702;28;20433;-69
2022/07/16 12:51:52;;;;;;;3.50;3.30;;;25.90;58.00;;;;;;5031062;28;20530;-69
2022/07/16 12:54:19;;;;;;;4.43;2.70;;;25.80;57.00;;;;;;5031909;28;20488;-69
2022/07/16 12:59:31;;;;;;;2.80;2.60;;;25.70;57.40;;;;;;5031612;28;20409;-69